createdAt,value
2018-11-01T00:00:22.807Z,5.43
2018-11-01T00:02:51.169Z,4.77
2018-11-01T00:05:19.564Z,5.87
2018-11-01T00:07:47.936Z,5.17
2018-11-01T00:10:16.294Z,5.30
2018-11-01T00:12:44.968Z,5.67
2018-11-01T00:15:14.385Z,5.40
2018-11-01T00:17:42.735Z,5.33
2018-11-01T00:20:12.797Z,5.60
2018-11-01T00:22:41.580Z,5.03
2018-11-01T00:25:11.377Z,5.53
2018-11-01T00:27:40.074Z,5.33
2018-11-01T00:30:09.356Z,5.87
2018-11-01T00:32:37.724Z,6.00
2018-11-01T00:35:06.553Z,6.47
2018-11-01T00:37:34.929Z,5.40
2018-11-01T00:40:03.501Z,6.00
2018-11-01T00:42:31.884Z,5.53
2018-11-01T00:45:00.238Z,6.03
2018-11-01T00:47:28.554Z,6.43
2018-11-01T00:49:56.913Z,5.97
2018-11-01T00:52:25.266Z,5.73
2018-11-01T00:54:53.722Z,5.13
2018-11-01T00:57:22.097Z,6.17
2018-11-01T00:59:51.383Z,6.87
2018-11-01T01:02:19.780Z,6.03
2018-11-01T01:04:48.124Z,5.30
2018-11-01T01:07:16.492Z,5.60
2018-11-01T01:09:44.829Z,5.93
2018-11-01T01:12:13.173Z,6.63
2018-11-01T01:14:41.502Z,6.30
2018-11-01T01:17:09.876Z,5.87
2018-11-01T01:19:38.217Z,5.90
2018-11-01T01:22:06.563Z,6.50
2018-11-01T01:24:34.896Z,6.40
2018-11-01T01:27:03.220Z,6.90
2018-11-01T01:29:31.570Z,6.80
2018-11-01T01:31:59.905Z,6.43
2018-11-01T01:34:28.264Z,6.60
2018-11-01T01:36:56.615Z,6.87
2018-11-01T01:39:24.956Z,6.37
2018-11-01T01:41:53.293Z,6.23
2018-11-01T01:44:21.607Z,6.23
2018-11-01T01:46:49.993Z,7.20
2018-11-01T01:49:18.336Z,7.20
2018-11-01T01:51:46.689Z,6.50
2018-11-01T01:54:15.368Z,7.70
2018-11-01T01:56:43.729Z,7.83
2018-11-01T01:59:12.074Z,6.97
2018-11-01T02:01:40.422Z,7.47
2018-11-01T02:04:08.776Z,6.30
2018-11-01T02:06:37.108Z,7.57
2018-11-01T02:09:10.972Z,7.63
2018-11-01T02:11:40.547Z,7.17
2018-11-01T02:14:08.985Z,8.00
2018-11-01T02:16:37.334Z,7.13
2018-11-01T02:19:06.130Z,7.97
2018-11-01T02:21:34.511Z,7.17
2018-11-01T02:24:02.845Z,7.03
2018-11-01T02:26:31.181Z,8.13
2018-11-01T02:28:59.525Z,7.50
2018-11-01T02:31:27.945Z,7.67
2018-11-01T02:33:56.286Z,7.17
2018-11-01T02:36:24.625Z,8.13
2018-11-01T02:38:52.966Z,8.40
2018-11-01T02:41:21.327Z,7.27
2018-11-01T02:43:49.775Z,8.27
2018-11-01T02:46:18.120Z,7.67
2018-11-01T02:48:46.569Z,8.33
2018-11-01T02:51:14.918Z,8.57
2018-11-01T02:53:43.257Z,8.10
2018-11-01T02:56:11.599Z,7.50
2018-11-01T02:58:39.944Z,7.73
2018-11-01T03:01:08.293Z,9.23
2018-11-01T03:03:36.702Z,7.93
2018-11-01T03:06:05.410Z,9.03
2018-11-01T03:08:34.457Z,8.13
2018-11-01T03:11:02.778Z,8.40
2018-11-01T03:13:31.099Z,8.13
2018-11-01T03:15:59.438Z,8.23
2018-11-01T03:18:27.767Z,9.57
2018-11-01T03:20:56.092Z,9.53
2018-11-01T03:23:24.413Z,8.93
2018-11-01T03:25:52.750Z,9.40
2018-11-01T03:28:21.078Z,8.37
2018-11-01T03:30:49.406Z,8.50
2018-11-01T03:33:17.727Z,8.67
2018-11-01T03:35:46.072Z,9.13
2018-11-01T03:38:14.465Z,8.83
2018-11-01T03:40:42.767Z,9.10
2018-11-01T03:43:11.099Z,8.70
2018-11-01T03:45:39.451Z,8.77
2018-11-01T03:48:07.768Z,9.23
2018-11-01T03:57:36.003Z,9.20
2018-11-01T04:00:05.258Z,9.00
2018-11-01T04:02:33.588Z,9.40
2018-11-01T04:05:01.914Z,9.70
2018-11-01T04:07:30.263Z,8.77
2018-11-01T04:09:58.619Z,9.23
2018-11-01T04:12:27.030Z,10.40
2018-11-01T04:14:55.456Z,9.37
2018-11-01T04:17:23.794Z,8.93
2018-11-01T04:19:52.124Z,8.83
2018-11-01T04:22:20.443Z,10.20
2018-11-01T04:24:48.783Z,9.97
2018-11-01T04:27:17.111Z,9.47
2018-11-01T04:29:45.465Z,10.07
2018-11-01T04:32:13.813Z,9.00
2018-11-01T04:34:42.153Z,10.30
2018-11-01T04:37:10.473Z,10.73
2018-11-01T04:39:38.816Z,10.90
2018-11-01T04:42:07.165Z,8.97
2018-11-01T04:44:35.604Z,9.40
2018-11-01T04:47:03.924Z,10.03
2018-11-01T04:49:32.292Z,10.23
2018-11-01T04:52:00.891Z,9.87
2018-11-01T04:54:29.261Z,9.70
2018-11-01T04:56:57.606Z,9.80
2018-11-01T04:59:25.960Z,11.10
2018-11-01T05:01:54.365Z,9.43
2018-11-01T05:04:22.677Z,10.50
2018-11-01T05:06:51.023Z,10.57
2018-11-01T05:09:19.356Z,11.00
2018-11-01T05:11:47.707Z,10.73
2018-11-01T05:14:16.023Z,9.90
2018-11-01T05:16:44.368Z,9.83
2018-11-01T05:19:12.874Z,11.33
2018-11-01T05:21:41.209Z,9.63
2018-11-01T05:24:09.526Z,12.20
2018-11-01T05:26:37.859Z,10.87
2018-11-01T05:29:06.184Z,12.27
2018-11-01T05:31:34.506Z,11.30
2018-11-01T05:34:02.819Z,11.23
2018-11-01T05:36:33.301Z,11.20
2018-11-01T05:39:01.638Z,10.87
2018-11-01T05:41:29.973Z,11.83
2018-11-01T05:43:58.301Z,12.33
2018-11-01T05:46:26.624Z,13.37
2018-11-01T05:48:54.950Z,12.30
2018-11-01T05:51:23.289Z,11.60
2018-11-01T05:53:51.624Z,11.10
2018-11-01T05:56:19.940Z,12.57
2018-11-01T05:58:48.270Z,11.70
2018-11-01T06:01:20.759Z,11.30
2018-11-01T06:03:49.105Z,12.43
2018-11-01T06:06:17.456Z,11.13
2018-11-01T06:08:46.160Z,11.73
2018-11-01T06:11:14.546Z,13.73
2018-11-01T06:13:42.883Z,12.27
2018-11-01T06:16:11.206Z,12.93
2018-11-01T06:18:39.590Z,12.47
2018-11-01T06:21:07.911Z,13.57
2018-11-01T06:23:36.239Z,13.43
2018-11-01T06:26:04.567Z,13.47
2018-11-01T06:28:32.888Z,12.77
2018-11-01T06:31:01.665Z,13.80
2018-11-01T06:33:30.027Z,14.00
2018-11-01T06:36:01.504Z,14.63
2018-11-01T06:38:29.827Z,15.17
2018-11-01T06:40:58.176Z,14.90
2018-11-01T06:43:26.520Z,15.03
2018-11-01T06:45:54.840Z,12.83
2018-11-01T06:48:23.171Z,14.37
2018-11-01T06:50:51.504Z,14.33
2018-11-01T06:53:19.864Z,15.90
2018-11-01T06:55:47.624Z,13.33
2018-11-01T06:58:16.001Z,13.13
2018-11-01T07:00:44.316Z,14.50
2018-11-01T07:03:12.629Z,14.87
2018-11-01T07:05:40.974Z,13.87
2018-11-01T07:08:09.285Z,15.70
2018-11-01T07:10:37.633Z,14.43
2018-11-01T07:13:06.206Z,14.33
2018-11-01T07:15:34.520Z,15.77
2018-11-01T07:18:02.918Z,14.83
2018-11-01T07:20:31.249Z,14.87
2018-11-01T07:22:59.572Z,15.00
2018-11-01T07:25:27.949Z,16.07
2018-11-01T07:27:56.217Z,15.00
2018-11-01T07:30:24.530Z,16.30
2018-11-01T07:32:52.935Z,15.73
2018-11-01T07:35:21.225Z,15.53
2018-11-01T07:37:49.703Z,17.43
2018-11-01T07:40:18.657Z,16.47
2018-11-01T07:42:47.382Z,16.63
2018-11-01T07:45:16.027Z,17.13
2018-11-01T07:47:45.018Z,16.97
2018-11-01T07:50:14.121Z,16.23
2018-11-01T07:52:42.812Z,15.50
2018-11-01T07:55:13.637Z,17.93
2018-11-01T07:57:41.992Z,18.37
2018-11-01T08:00:13.372Z,17.90
2018-11-01T08:02:42.259Z,18.37
2018-11-01T08:05:11.553Z,18.77
2018-11-01T08:07:40.350Z,18.80
2018-11-01T08:10:10.858Z,19.87
2018-11-01T08:12:39.197Z,18.60
2018-11-01T08:15:10.081Z,18.73
2018-11-01T08:17:38.416Z,19.70
2018-11-01T08:20:08.338Z,18.90
2018-11-01T08:22:36.588Z,19.47
2018-11-01T08:25:05.219Z,20.13
2018-11-01T08:27:33.725Z,18.83
2018-11-01T08:30:02.206Z,17.77
2018-11-01T08:32:30.547Z,18.97
2018-11-01T08:34:58.910Z,19.70
2018-11-01T08:37:27.241Z,18.77
2018-11-01T08:39:55.755Z,19.53
2018-11-01T08:42:24.545Z,18.13
2018-11-01T08:44:52.866Z,17.67
2018-11-01T08:47:21.213Z,18.27
2018-11-01T08:49:49.580Z,18.80
2018-11-01T08:52:17.937Z,18.33
2018-11-01T08:54:46.251Z,20.17
2018-11-01T08:57:15.307Z,19.27
2018-11-01T08:59:43.883Z,19.80
2018-11-01T09:02:12.223Z,18.50
2018-11-01T09:04:40.553Z,19.90
2018-11-01T09:07:08.894Z,19.47
2018-11-01T09:09:37.224Z,19.13
2018-11-01T09:12:05.600Z,19.80
2018-11-01T09:14:34.009Z,19.33
2018-11-01T09:17:02.293Z,20.73
2018-11-01T09:19:30.653Z,20.53
2018-11-01T09:21:58.995Z,20.23
2018-11-01T09:24:27.314Z,21.37
2018-11-01T09:26:55.682Z,18.10
2018-11-01T09:29:24.027Z,19.93
2018-11-01T09:31:52.380Z,19.47
2018-11-01T09:34:20.714Z,17.93
2018-11-01T09:36:49.093Z,19.63
2018-11-01T09:39:17.433Z,19.13
2018-11-01T09:41:45.771Z,16.70
2018-11-01T09:44:14.135Z,16.33
2018-11-01T09:46:42.647Z,17.10
2018-11-01T09:49:10.855Z,16.17
2018-11-01T09:51:39.210Z,16.50
2018-11-01T09:54:07.540Z,16.83
2018-11-01T09:56:35.996Z,15.30
2018-11-01T09:59:05.068Z,15.73
2018-11-01T10:01:33.408Z,15.70
2018-11-01T10:04:01.781Z,15.03
2018-11-01T10:06:30.113Z,16.13
2018-11-01T10:08:58.485Z,16.03
2018-11-01T10:11:26.799Z,16.73
2018-11-01T10:13:55.163Z,16.87
2018-11-01T10:16:23.637Z,14.83
2018-11-01T10:18:51.992Z,14.87
2018-11-01T10:21:21.020Z,14.03
2018-11-01T10:23:49.305Z,14.37
2018-11-01T10:26:17.655Z,14.70
2018-11-01T10:28:45.990Z,13.23
2018-11-01T10:31:14.363Z,14.27
2018-11-01T10:33:43.219Z,13.40
2018-11-01T10:36:11.526Z,12.57
2018-11-01T10:38:39.886Z,12.50
2018-11-01T10:41:08.261Z,10.90
2018-11-01T10:43:36.652Z,11.07
2018-11-01T10:46:05.157Z,10.33
2018-11-01T10:48:33.517Z,11.63
2018-11-01T10:51:01.948Z,10.03
2018-11-01T10:53:30.885Z,9.67
2018-11-01T10:55:59.204Z,10.60
2018-11-01T10:58:27.527Z,9.63
2018-11-01T11:01:01.585Z,10.13
2018-11-01T11:03:29.919Z,10.57
2018-11-01T11:05:58.264Z,10.27
2018-11-01T11:08:26.617Z,10.20
2018-11-01T11:10:54.958Z,8.73
2018-11-01T11:13:23.284Z,9.80
2018-11-01T11:15:51.619Z,10.00
2018-11-01T11:18:19.998Z,10.37
2018-11-01T11:20:48.576Z,10.27
2018-11-01T11:23:16.713Z,10.30
2018-11-01T11:25:45.048Z,9.53
2018-11-01T11:28:13.373Z,10.17
2018-11-01T11:30:41.899Z,10.43
2018-11-01T11:33:10.053Z,9.70
2018-11-01T11:35:38.452Z,10.93
2018-11-01T11:38:06.737Z,9.47
2018-11-01T11:40:35.066Z,9.33
2018-11-01T11:43:03.383Z,8.63
2018-11-01T11:45:31.720Z,9.43
2018-11-01T11:48:00.024Z,8.37
2018-11-01T11:50:28.329Z,10.00
2018-11-01T11:52:56.644Z,9.47
2018-11-01T11:55:24.964Z,8.97
2018-11-01T11:57:53.308Z,9.97
2018-11-01T12:00:21.620Z,8.43
2018-11-01T12:02:49.960Z,8.00
2018-11-01T12:05:18.318Z,8.80
2018-11-01T12:07:46.656Z,7.83
2018-11-01T12:10:15.082Z,8.33
2018-11-01T12:12:43.403Z,8.17
2018-11-01T12:15:11.776Z,8.57
2018-11-01T12:17:40.135Z,8.60
2018-11-01T12:20:10.325Z,8.47
2018-11-01T12:22:38.661Z,7.97
2018-11-01T12:25:07.837Z,8.53
2018-11-01T12:27:36.352Z,7.90
2018-11-01T12:30:05.320Z,7.80
2018-11-01T12:32:33.682Z,8.30
2018-11-01T12:35:02.032Z,7.93
2018-11-01T12:37:30.430Z,8.27
2018-11-01T12:39:58.816Z,8.10
2018-11-01T12:42:27.143Z,7.80
2018-11-01T12:44:55.587Z,8.23
2018-11-01T12:47:23.900Z,8.40
2018-11-01T12:49:52.308Z,8.87
2018-11-01T12:52:20.590Z,8.03
2018-11-01T12:54:48.934Z,8.00
2018-11-01T12:57:17.288Z,7.77
2018-11-01T12:59:45.626Z,8.53
2018-11-01T13:02:13.992Z,8.47
2018-11-01T13:04:42.308Z,9.03
2018-11-01T13:07:10.641Z,8.73
2018-11-01T13:09:38.971Z,9.50
2018-11-01T13:12:07.316Z,8.93
2018-11-01T13:14:35.681Z,8.43
2018-11-01T13:17:03.999Z,9.50
2018-11-01T13:19:32.308Z,8.37
2018-11-01T13:22:00.623Z,9.77
2018-11-01T13:24:28.959Z,8.63
2018-11-01T13:26:57.415Z,8.40
2018-11-01T13:29:25.801Z,9.07
2018-11-01T13:31:54.116Z,9.20
2018-11-01T13:34:22.449Z,9.27
2018-11-01T13:36:50.945Z,9.80
2018-11-01T13:39:19.281Z,8.60
2018-11-01T13:41:47.681Z,9.53
2018-11-01T13:44:15.995Z,9.47
2018-11-01T13:46:44.307Z,9.67
2018-11-01T13:49:12.681Z,10.03
2018-11-01T13:51:41.003Z,8.90
2018-11-01T13:54:09.349Z,8.13
2018-11-01T13:56:37.820Z,10.30
2018-11-01T13:59:06.548Z,10.30
2018-11-01T14:01:34.880Z,9.50
2018-11-01T14:04:03.205Z,8.70
2018-11-01T14:06:31.519Z,9.10
2018-11-01T14:08:59.844Z,9.40
2018-11-01T14:11:28.426Z,8.93
2018-11-01T14:13:57.161Z,9.17
2018-11-01T14:16:25.107Z,8.83
2018-11-01T14:18:54.154Z,9.63
2018-11-01T14:21:22.476Z,8.73
2018-11-01T14:23:50.823Z,9.60
2018-11-01T14:26:19.159Z,9.60
2018-11-01T14:28:47.508Z,10.77
2018-11-01T14:31:16.038Z,9.50
2018-11-01T14:33:44.205Z,9.40
2018-11-01T14:36:12.553Z,8.97
2018-11-01T14:38:40.876Z,9.27
2018-11-01T14:41:09.224Z,8.90
2018-11-01T14:43:37.693Z,9.03
2018-11-01T14:46:06.076Z,9.17
2018-11-01T14:48:34.407Z,9.37
2018-11-01T14:51:02.721Z,9.17
2018-11-01T14:53:31.513Z,8.90
2018-11-01T14:56:00.283Z,9.57
2018-11-01T14:58:28.822Z,9.33
2018-11-01T15:00:56.074Z,9.33
2018-11-01T15:03:24.409Z,9.17
2018-11-01T15:05:52.772Z,8.87
2018-11-01T15:08:21.103Z,8.37
2018-11-01T15:10:49.476Z,9.40
2018-11-01T15:13:17.879Z,9.57
2018-11-01T15:15:46.169Z,8.93
2018-11-01T15:18:14.503Z,9.93
2018-11-01T15:20:42.824Z,8.97
2018-11-01T15:23:11.177Z,8.40
2018-11-01T15:25:39.519Z,9.00
2018-11-01T15:28:07.895Z,8.90
2018-11-01T15:30:36.209Z,9.33
2018-11-01T15:33:04.585Z,8.93
2018-11-01T15:35:32.911Z,9.43
2018-11-01T15:38:01.237Z,9.17
2018-11-01T15:40:29.589Z,9.23
2018-11-01T15:42:57.921Z,10.23
2018-11-01T15:45:26.264Z,9.03
2018-11-01T15:47:54.623Z,9.57
2018-11-01T15:50:22.994Z,9.40
2018-11-01T15:52:51.380Z,9.27
2018-11-01T15:55:19.732Z,9.27
2018-11-01T15:57:48.077Z,9.10
2018-11-01T16:00:16.417Z,9.17
2018-11-01T16:02:45.495Z,10.53
2018-11-01T16:05:14.733Z,9.90
2018-11-01T16:07:43.088Z,10.57
2018-11-01T16:10:12.182Z,10.33
2018-11-01T16:12:40.913Z,10.03
2018-11-01T16:15:11.740Z,10.47
2018-11-01T16:17:40.521Z,11.37
2018-11-01T16:20:09.433Z,10.13
2018-11-01T16:22:38.314Z,10.90
2018-11-01T16:25:06.989Z,11.03
2018-11-01T16:27:35.678Z,10.27
2018-11-01T16:30:04.035Z,10.80
2018-11-01T16:32:32.375Z,10.10
2018-11-01T16:35:00.759Z,9.70
2018-11-01T16:37:29.396Z,9.93
2018-11-01T16:39:57.882Z,9.87
2018-11-01T16:42:26.433Z,10.40
2018-11-01T16:44:54.760Z,11.17
2018-11-01T16:47:23.101Z,11.20
2018-11-01T16:49:51.470Z,10.33
2018-11-01T16:52:19.820Z,11.17
2018-11-01T16:54:48.161Z,10.77
2018-11-01T16:57:16.523Z,10.40
2018-11-01T16:59:44.907Z,11.57
2018-11-01T17:02:13.231Z,11.00
2018-11-01T17:04:41.580Z,10.47
2018-11-01T17:07:10.152Z,10.83
2018-11-01T17:09:38.548Z,10.90
2018-11-01T17:12:06.894Z,12.03
2018-11-01T17:14:35.709Z,11.70
2018-11-01T17:17:04.119Z,11.30
2018-11-01T17:19:32.566Z,12.27
2018-11-01T17:22:00.953Z,12.40
2018-11-01T17:24:29.280Z,11.07
2018-11-01T17:26:58.215Z,14.23
2018-11-01T17:29:26.802Z,14.20
2018-11-01T17:31:55.205Z,13.07
2018-11-01T17:34:23.589Z,11.83
2018-11-01T17:36:51.933Z,12.10
2018-11-01T17:39:20.272Z,11.20
2018-11-01T17:41:48.668Z,10.97
2018-11-01T17:44:17.013Z,10.23
2018-11-01T17:46:45.463Z,11.27
2018-11-01T17:49:13.832Z,11.97
2018-11-01T17:51:42.182Z,11.53
2018-11-01T17:54:15.005Z,12.13
2018-11-01T17:56:44.292Z,10.97
2018-11-01T17:59:12.672Z,9.73
2018-11-01T18:01:41.057Z,11.53
2018-11-01T18:04:10.052Z,11.17
2018-11-01T18:06:38.450Z,10.27
2018-11-01T18:09:09.179Z,10.23
2018-11-01T18:11:37.547Z,9.67
2018-11-01T18:14:06.222Z,10.37
2018-11-01T18:16:34.808Z,10.07
2018-11-01T18:19:03.186Z,9.83
2018-11-01T18:21:31.581Z,9.83
2018-11-01T18:23:59.994Z,9.10
2018-11-01T18:26:28.323Z,10.83
2018-11-01T18:28:57.209Z,9.70
2018-11-01T18:31:25.535Z,10.83
2018-11-01T18:33:53.918Z,9.30
2018-11-01T18:36:22.501Z,9.23
2018-11-01T18:38:50.849Z,9.43
2018-11-01T18:41:19.224Z,9.50
2018-11-01T18:43:47.575Z,11.30
2018-11-01T18:46:15.982Z,10.03
2018-11-01T18:48:44.540Z,9.40
2018-11-01T18:51:13.344Z,9.30
2018-11-01T18:53:41.785Z,9.97
2018-11-01T18:56:10.300Z,9.57
2018-11-01T18:58:38.793Z,9.63
2018-11-01T19:01:07.212Z,9.20
2018-11-01T19:03:35.547Z,9.53
2018-11-01T19:06:04.522Z,9.33
2018-11-01T19:08:32.917Z,9.17
2018-11-01T19:11:01.252Z,9.50
2018-11-01T19:13:29.609Z,9.33
2018-11-01T19:15:58.135Z,8.60
2018-11-01T19:18:26.614Z,7.67
2018-11-01T19:20:54.964Z,8.00
2018-11-01T19:23:23.296Z,7.93
2018-11-01T19:25:51.624Z,6.83
2018-11-01T19:28:19.959Z,7.43
2018-11-01T19:30:48.332Z,7.73
2018-11-01T19:33:16.751Z,7.47
2018-11-01T19:35:45.092Z,6.90
2018-11-01T19:38:13.429Z,7.13
2018-11-01T19:40:41.825Z,9.63
2018-11-01T19:43:10.156Z,7.30
2018-11-01T19:45:38.505Z,9.20
2018-11-01T19:48:07.046Z,6.73
2018-11-01T19:50:35.340Z,7.23
2018-11-01T19:53:03.715Z,7.77
2018-11-01T19:55:32.063Z,7.00
2018-11-01T19:58:00.401Z,7.30
2018-11-01T20:00:28.725Z,8.67
2018-11-01T20:02:57.101Z,9.57
2018-11-01T20:05:25.449Z,14.10
2018-11-01T20:07:53.774Z,7.93
2018-11-01T20:10:22.532Z,8.37
2018-11-01T20:12:50.736Z,7.73
2018-11-01T20:15:19.070Z,7.70
2018-11-01T20:17:47.409Z,6.97
2018-11-01T20:20:15.793Z,11.40
2018-11-01T20:22:45.318Z,9.70
2018-11-01T20:25:13.709Z,8.10
2018-11-01T20:27:42.202Z,7.27
2018-11-01T20:30:13.621Z,7.17
2018-11-01T20:32:42.829Z,7.83
2018-11-01T20:35:12.647Z,7.67
2018-11-01T20:37:41.348Z,6.33
2018-11-01T20:40:09.813Z,6.83
2018-11-01T20:42:38.384Z,6.50
2018-11-01T20:45:08.013Z,7.40
2018-11-01T20:47:36.360Z,6.93
2018-11-01T20:50:05.485Z,5.93
2018-11-01T20:52:33.974Z,7.20
2018-11-01T20:55:02.320Z,6.67
2018-11-01T20:57:30.723Z,5.73
2018-11-01T20:59:59.157Z,5.90
2018-11-01T21:02:27.509Z,5.37
2018-11-01T21:04:55.994Z,5.80
2018-11-01T21:07:24.385Z,6.23
2018-11-01T21:09:52.763Z,5.80
2018-11-01T21:12:21.140Z,6.10
2018-11-01T21:14:49.547Z,6.23
2018-11-01T21:17:17.866Z,5.53
2018-11-01T21:19:46.313Z,6.00
2018-11-01T21:22:15.532Z,4.97
2018-11-01T21:24:44.118Z,5.83
2018-11-01T21:27:12.474Z,5.90
2018-11-01T21:29:40.856Z,5.70
2018-11-01T21:32:09.780Z,6.43
2018-11-01T21:34:38.579Z,5.60
2018-11-01T21:37:07.140Z,5.83
2018-11-01T21:39:35.497Z,5.27
2018-11-01T21:42:04.331Z,5.27
2018-11-01T21:44:32.737Z,5.77
2018-11-01T21:47:01.384Z,5.83
2018-11-01T21:49:29.754Z,5.90
2018-11-01T21:51:58.108Z,5.83
2018-11-01T21:54:26.442Z,6.53
2018-11-01T21:56:54.861Z,5.57
2018-11-01T21:59:23.191Z,5.63
2018-11-01T22:01:51.711Z,6.80
2018-11-01T22:04:20.075Z,8.97
2018-11-01T22:06:48.416Z,7.70
2018-11-01T22:09:16.766Z,9.43
2018-11-01T22:11:45.141Z,7.23
2018-11-01T22:14:13.486Z,5.07
2018-11-01T22:16:41.885Z,5.53
2018-11-01T22:19:10.275Z,6.10
2018-11-01T22:21:38.624Z,5.73
2018-11-01T22:24:07.144Z,5.40
2018-11-01T22:26:35.520Z,5.57
2018-11-01T22:29:03.886Z,5.73
2018-11-01T22:31:32.239Z,5.77
2018-11-01T22:34:00.613Z,5.63
2018-11-01T22:36:28.990Z,5.80
2018-11-01T22:38:57.318Z,5.57
2018-11-01T22:41:26.311Z,7.20
2018-11-01T22:43:54.649Z,5.77
2018-11-01T22:46:22.983Z,6.10
2018-11-01T22:48:51.381Z,5.07
2018-11-01T22:51:19.736Z,5.87
2018-11-01T22:53:48.174Z,6.03
2018-11-01T22:56:16.479Z,6.60
2018-11-01T22:58:44.894Z,6.77
2018-11-01T23:01:13.268Z,6.17
2018-11-01T23:03:42.532Z,6.93
2018-11-01T23:06:10.888Z,5.90
2018-11-01T23:08:40.090Z,6.20
2018-11-01T23:11:08.469Z,6.67
2018-11-01T23:13:37.287Z,6.33
2018-11-01T23:16:06.040Z,5.90
2018-11-01T23:18:34.380Z,5.70
2018-11-01T23:21:02.728Z,6.70
2018-11-01T23:23:31.058Z,6.00
2018-11-01T23:25:59.456Z,5.53
2018-11-01T23:28:28.027Z,5.87
2018-11-01T23:30:56.367Z,5.87
2018-11-01T23:33:24.724Z,6.03
2018-11-01T23:35:53.161Z,6.03
2018-11-01T23:38:26.937Z,5.30
2018-11-01T23:41:00.639Z,6.40
2018-11-01T23:43:34.372Z,5.60
2018-11-01T23:46:08.073Z,5.90
2018-11-01T23:48:35.567Z,6.27
2018-11-01T23:51:14.751Z,6.37
2018-11-01T23:53:52.730Z,5.97
2018-11-01T23:56:21.310Z,5.57
2018-11-01T23:58:49.656Z,5.63
